Time;durP1;ratioP1;P1;durP2;ratioP2;P2;SDS_P1;SDS_P2;PMS_P1;PMS_P2;Temp;Humidity;BMP_temperature;BMP_pressure;BME280_temperature;BME280_humidity;BME280_pressure;Samples;Min_cycle;Max_cycle;Signal;HPM_P1;HPM_P2
2022/11/19 00:01:44;;;;;;;0.10;0.10;;;;;;;-4.38;71.60;99732.47;6176782;23;20025;-71
2022/11/19 00:04:10;;;;;;;0.10;0.10;;;;;;;-4.34;71.49;99726.59;6128584;23;20337;-71
2022/11/19 00:06:36;;;;;;;0.10;0.10;;;;;;;-4.32;71.51;99729.91;6178175;23;20407;-71
2022/11/19 00:09:04;;;;;;;0.10;0.10;;;;;;;-4.30;71.45;99735.88;6175310;23;20048;-71
2022/11/19 00:14:16;;;;;;;0.10;0.10;;;;;;;-4.33;71.56;99725.56;6178015;23;20071;-71
2022/11/19 00:16:44;;;;;;;0.10;0.10;;;;;;;-4.40;71.34;99713.97;6122620;23;20021;-71
2022/11/19 00:19:11;;;;;;;0.10;0.10;;;;;;;-4.39;71.44;99722.78;6159584;23;20028;-67
2022/11/19 00:21:36;;;;;;;0.10;0.10;;;;;;;-4.41;71.67;99720.31;6173750;23;20025;-68
2022/11/19 00:24:03;;;;;;;0.10;0.10;;;;;;;-4.41;71.63;99718.47;6125669;23;20545;-67
2022/11/19 00:26:29;;;;;;;0.10;0.10;;;;;;;-4.38;71.75;99729.78;6177919;23;20024;-67
2022/11/19 00:28:55;;;;;;;0.20;0.20;;;;;;;-4.32;71.71;99734.44;6186262;23;20020;-67
2022/11/19 00:31:22;;;;;;;0.10;0.10;;;;;;;-4.29;71.24;99740.25;6160304;23;20095;-67
2022/11/19 00:33:53;;;;;;;0.10;0.10;;;;;;;-4.29;70.87;99739.41;6159869;23;20021;-67
2022/11/19 00:36:19;;;;;;;0.10;0.10;;;;;;;-4.35;71.01;99740.94;6148951;23;20025;-67
2022/11/19 00:38:45;;;;;;;0.10;0.10;;;;;;;-4.33;70.95;99746.94;6176453;23;20024;-67
2022/11/19 00:41:11;;;;;;;0.10;0.10;;;;;;;-4.32;70.95;99745.94;6159196;23;20028;-67
2022/11/19 00:43:46;;;;;;;0.10;0.10;;;;;;;-4.32;71.27;99750.44;6159562;23;20020;-67
2022/11/19 00:46:13;;;;;;;0.10;0.10;;;;;;;-4.30;71.03;99751.09;6188809;23;20136;-67
2022/11/19 00:48:41;;;;;;;0.10;0.10;;;;;;;-4.32;70.79;99748.59;6149977;23;20047;-68
2022/11/19 00:51:07;;;;;;;0.10;0.10;;;;;;;-4.30;70.75;99754.59;6189261;23;20021;-68
2022/11/19 00:53:33;;;;;;;0.10;0.10;;;;;;;-4.31;70.80;99752.94;6176487;23;20463;-68
2022/11/19 00:56:00;;;;;;;0.10;0.10;;;;;;;-4.31;70.39;99755.59;6175296;23;20068;-71
2022/11/19 00:58:26;;;;;;;0.10;0.10;;;;;;;-4.32;70.43;99761.94;6180567;23;20021;-70
2022/11/19 01:00:53;;;;;;;0.10;0.10;;;;;;;-4.33;70.43;99776.31;6148714;23;20759;-71
2022/11/19 01:03:18;;;;;;;0.10;0.10;;;;;;;-4.33;70.48;99778.16;6183267;23;20020;-71
2022/11/19 01:05:46;;;;;;;0.10;0.10;;;;;;;-4.25;70.48;99785.28;6184292;23;20378;-71
2022/11/19 01:08:12;;;;;;;0.10;0.10;;;;;;;-4.27;69.97;99785.44;6158892;23;20021;-72
2022/11/19 01:10:38;;;;;;;0.20;0.20;;;;;;;-4.33;69.92;99789.66;6161262;23;20031;-71
2022/11/19 01:15:49;;;;;;;0.10;0.10;;;;;;;-4.47;70.04;99801.09;6189609;23;20017;-71
2022/11/19 01:18:16;;;;;;;0.10;0.10;;;;;;;-4.60;70.11;99791.84;6187753;23;20048;-71
2022/11/19 01:20:43;;;;;;;0.10;0.10;;;;;;;-4.55;70.30;99796.63;6189425;23;20021;-67
2022/11/19 01:23:10;;;;;;;0.10;0.10;;;;;;;-4.55;70.24;99799.31;6177353;23;20103;-67
2022/11/19 01:25:37;;;;;;;0.10;0.10;;;;;;;-4.51;70.26;99799.78;6186159;23;20465;-67
2022/11/19 01:28:05;;;;;;;0.20;0.20;;;;;;;-4.49;70.24;99805.78;6102225;23;20021;-67
2022/11/19 01:30:32;;;;;;;0.10;0.10;;;;;;;-4.49;70.23;99806.63;6189711;23;20025;-67
2022/11/19 01:32:58;;;;;;;0.10;0.10;;;;;;;-4.48;70.11;99802.09;6178510;23;20025;-68
2022/11/19 01:35:24;;;;;;;0.10;0.10;;;;;;;-4.44;70.28;99809.59;6178733;23;20107;-68
2022/11/19 01:37:51;;;;;;;0.10;0.10;;;;;;;-4.37;69.86;99808.88;6186827;23;20029;-68
2022/11/19 01:40:19;;;;;;;0.10;0.10;;;;;;;-4.38;70.05;99810.72;6149796;23;20131;-68
2022/11/19 01:42:52;;;;;;;0.10;0.10;;;;;;;-4.41;70.10;99811.91;6186809;23;20176;-68
2022/11/19 01:45:32;;;;;;;0.20;0.20;;;;;;;-4.42;70.29;99812.09;6177639;23;20096;-68
2022/11/19 01:48:01;;;;;;;0.10;0.10;;;;;;;-4.37;70.10;99814.22;6187087;23;20104;-68
2022/11/19 01:50:30;;;;;;;0.10;0.10;;;;;;;-4.37;70.49;99825.72;6177661;23;20116;-68
2022/11/19 01:52:56;;;;;;;0.20;0.20;;;;;;;-4.35;70.26;99834.41;6162496;23;20025;-68
2022/11/19 01:55:25;;;;;;;0.20;0.20;;;;;;;-4.36;70.59;99832.75;6177573;23;20116;-68
2022/11/19 01:57:54;;;;;;;0.10;0.10;;;;;;;-4.30;70.90;99837.34;6185938;23;20064;-68
2022/11/19 02:00:21;;;;;;;0.10;0.10;;;;;;;-4.30;70.64;99839.22;6185439;23;20024;-68
2022/11/19 02:02:47;;;;;;;0.10;0.10;;;;;;;-4.30;70.79;99847.22;6124489;23;20021;-68
2022/11/19 02:05:14;;;;;;;0.10;0.10;;;;;;;-4.28;70.54;99853.22;6176042;23;20021;-67
2022/11/19 02:07:44;;;;;;;0.10;0.10;;;;;;;-4.28;70.46;99859.41;6176041;23;20029;-68
2022/11/19 02:10:10;;;;;;;0.10;0.10;;;;;;;-4.30;70.46;99857.91;6150048;23;20029;-68
2022/11/19 02:12:44;;;;;;;0.10;0.10;;;;;;;-4.26;70.38;99867.22;6176963;23;20079;-68
2022/11/19 02:15:38;;;;;;;0.17;0.17;;;;;;;-4.35;70.30;99850.41;6154857;23;20120;-67
2022/11/19 02:18:38;;;;;;;0.20;0.20;;;;;;;-4.21;70.32;99864.03;6151653;23;20025;-68
2022/11/19 02:21:18;;;;;;;0.10;0.10;;;;;;;-4.24;70.17;99859.84;6172655;23;20372;-68
2022/11/19 02:24:09;;;;;;;0.10;0.10;;;;;;;-4.21;70.25;99864.88;6138982;23;20025;-68
2022/11/19 02:27:19;;;;;;;0.10;0.10;;;;;;;-4.14;70.06;99871.16;6162336;23;20027;-67
2022/11/19 02:30:04;;;;;;;0.10;0.10;;;;;;;-4.07;70.00;99871.28;6188916;23;20029;-68
2022/11/19 02:32:33;;;;;;;0.10;0.10;;;;;;;-4.15;69.88;99871.31;6160935;23;20408;-68
2022/11/19 02:35:08;;;;;;;0.10;0.10;;;;;;;-4.17;69.71;99871.53;6146780;23;20029;-68
2022/11/19 02:37:42;;;;;;;0.10;0.10;;;;;;;-4.23;69.79;99856.19;6176931;23;20025;-68
2022/11/19 02:40:15;;;;;;;0.10;0.10;;;;;;;-4.25;70.10;99862.72;6176231;23;20048;-67
2022/11/19 02:42:49;;;;;;;0.10;0.10;;;;;;;-4.22;70.01;99854.34;6171500;23;20052;-68
2022/11/19 02:45:20;;;;;;;0.10;0.10;;;;;;;-4.20;70.29;99855.00;6184442;23;20075;-68
2022/11/19 02:47:51;;;;;;;0.10;0.10;;;;;;;-4.19;70.22;99859.34;6189030;23;20060;-67
2022/11/19 02:50:20;;;;;;;0.10;0.10;;;;;;;-4.24;70.32;99854.53;6189938;23;20021;-68
2022/11/19 02:52:47;;;;;;;0.10;0.10;;;;;;;-4.30;70.63;99857.91;6179290;23;20045;-67
2022/11/19 02:55:15;;;;;;;0.10;0.10;;;;;;;-4.25;70.84;99863.53;6162476;23;20028;-68
2022/11/19 02:57:44;;;;;;;;;;;;;;;-4.21;70.64;99861.34;6184222;23;20017;-68
2022/11/19 03:06:01;;;;;;;0.63;0.20;;;;;;;-4.37;70.68;99868.44;6123884;23;20044;-67
2022/11/19 03:08:27;;;;;;;0.10;0.10;;;;;;;-4.36;70.87;99866.63;6161222;23;20464;-68
2022/11/19 03:11:09;;;;;;;0.20;0.20;;;;;;;-4.38;71.25;99863.28;6176995;23;20461;-68
2022/11/19 03:16:42;;;;;;;0.10;0.10;;;;;;;-4.34;70.91;99869.94;6155190;23;20388;-67
2022/11/19 03:19:35;;;;;;;0.10;0.10;;;;;;;-4.19;70.69;99886.03;6185738;23;20021;-67
2022/11/19 03:22:07;;;;;;;0.10;0.10;;;;;;;-4.17;70.50;99889.38;6185257;23;20052;-67
2022/11/19 03:24:39;;;;;;;0.10;0.10;;;;;;;-4.19;70.57;99886.03;6152685;23;20339;-67
2022/11/19 03:27:10;;;;;;;0.10;0.10;;;;;;;-4.16;70.50;99888.34;6189014;23;20029;-67
2022/11/19 03:29:40;;;;;;;0.00;0.00;;;;;;;-4.17;70.61;99892.03;6158652;23;20516;-67
2022/11/19 03:32:11;;;;;;;0.20;0.20;;;;;;;-4.17;70.68;99886.69;6151682;23;20051;-67
2022/11/19 03:34:43;;;;;;;0.10;0.10;;;;;;;-4.13;70.67;99894.19;6187980;23;20025;-67
2022/11/19 03:37:12;;;;;;;0.10;0.10;;;;;;;-4.11;70.66;99887.84;6187585;23;20547;-67
2022/11/19 03:39:41;;;;;;;0.10;0.10;;;;;;;-4.09;70.71;99893.81;6177664;23;20103;-67
2022/11/19 03:42:10;;;;;;;0.17;0.17;;;;;;;-4.06;70.45;99901.47;6163120;23;20163;-67
2022/11/19 03:44:41;;;;;;;0.10;0.10;;;;;;;-4.03;70.50;99906.50;6150008;23;20024;-69
2022/11/19 03:47:12;;;;;;;0.10;0.10;;;;;;;-4.04;69.97;99897.63;6184981;23;20036;-68
2022/11/19 03:49:42;;;;;;;0.10;0.10;;;;;;;-4.05;70.13;99893.31;6186244;23;20028;-68
2022/11/19 03:52:12;;;;;;;0.10;0.10;;;;;;;-4.05;70.26;99895.16;6174956;23;20338;-68
2022/11/19 03:54:39;;;;;;;0.20;0.20;;;;;;;-4.11;70.28;99894.03;6149645;23;20021;-67
2022/11/19 03:57:08;;;;;;;0.10;0.10;;;;;;;-4.13;70.42;99904.88;6188295;23;20076;-68
2022/11/19 03:59:34;;;;;;;0.10;0.10;;;;;;;-4.11;70.54;99904.72;6162160;23;20021;-68
2022/11/19 04:02:02;;;;;;;0.10;0.10;;;;;;;-4.13;70.57;99901.38;6173535;23;20064;-68
2022/11/19 04:04:34;;;;;;;0.10;0.10;;;;;;;-4.08;70.63;99915.03;6186841;23;20418;-68
2022/11/19 04:07:02;;;;;;;0.15;0.10;;;;;;;-4.10;70.77;99913.53;6151444;23;20021;-67
2022/11/19 04:09:28;;;;;;;0.10;0.10;;;;;;;-4.10;70.90;99924.22;6188454;23;20025;-68
2022/11/19 04:11:54;;;;;;;0.10;0.10;;;;;;;-4.04;70.75;99920.88;6175648;23;20021;-68
2022/11/19 04:14:20;;;;;;;0.10;0.10;;;;;;;-3.95;70.61;99930.47;6177405;23;20475;-68
2022/11/19 04:16:46;;;;;;;0.15;0.15;;;;;;;-3.92;70.56;99927.44;6149494;23;20024;-68
2022/11/19 04:19:12;;;;;;;0.10;0.10;;;;;;;-3.82;70.27;99934.41;6162760;23;20020;-68
2022/11/19 04:21:38;;;;;;;0.10;0.10;;;;;;;-3.75;69.99;99930.84;6153854;23;20480;-68
2022/11/19 04:24:07;;;;;;;0.10;0.10;;;;;;;-3.78;69.76;99928.53;6162248;23;20020;-68
2022/11/19 04:26:33;;;;;;;0.10;0.10;;;;;;;-3.78;69.83;99935.72;6159341;23;20400;-67
2022/11/19 04:28:59;;;;;;;0.10;0.10;;;;;;;-3.82;69.59;99937.09;6189708;23;20036;-68
2022/11/19 04:31:25;;;;;;;0.10;0.10;;;;;;;-3.83;69.79;99933.56;6189416;23;20025;-68
2022/11/19 04:33:51;;;;;;;0.10;0.10;;;;;;;-3.76;69.47;99945.22;6152698;23;20029;-68
2022/11/19 04:36:17;;;;;;;0.10;0.10;;;;;;;-3.75;69.28;99944.22;6188301;23;20376;-68
2022/11/19 04:38:43;;;;;;;0.10;0.10;;;;;;;-3.81;69.44;99942.25;6131820;23;20028;-68
2022/11/19 04:41:11;;;;;;;0.13;0.13;;;;;;;-3.92;69.73;99953.34;6155436;23;20021;-67
2022/11/19 04:43:37;;;;;;;0.20;0.20;;;;;;;-3.86;69.89;99952.63;6191366;23;20044;-67
2022/11/19 04:46:03;;;;;;;0.10;0.10;;;;;;;-3.82;69.62;99964.66;6190482;23;20357;-67
2022/11/19 04:48:29;;;;;;;0.10;0.10;;;;;;;-3.83;69.55;99964.81;6192177;23;20020;-68
2022/11/19 04:50:55;;;;;;;0.10;0.10;;;;;;;-3.79;69.66;99966.13;6182302;23;20025;-68
2022/11/19 04:53:21;;;;;;;0.10;0.10;;;;;;;-3.78;69.49;99971.31;6190328;23;20121;-68
2022/11/19 04:55:47;;;;;;;0.10;0.10;;;;;;;-3.73;69.55;99968.09;6180911;23;20091;-68
2022/11/19 04:58:15;;;;;;;0.10;0.10;;;;;;;-3.70;69.41;99978.44;6155264;23;20025;-67
2022/11/19 05:00:41;;;;;;;0.10;0.10;;;;;;;-3.79;69.35;99958.09;6181847;23;20028;-68
2022/11/19 05:03:07;;;;;;;0.10;0.10;;;;;;;-3.77;69.65;99964.94;6154521;23;20037;-67
2022/11/19 05:05:33;;;;;;;0.10;0.10;;;;;;;-3.74;69.72;99964.59;6125759;23;20029;-68
2022/11/19 05:07:59;;;;;;;0.10;0.10;;;;;;;-3.76;69.47;99966.59;6191646;23;20111;-67
2022/11/19 05:10:25;;;;;;;0.10;0.10;;;;;;;-3.75;69.74;99959.41;6165539;23;20072;-68
2022/11/19 05:12:51;;;;;;;0.10;0.10;;;;;;;-3.83;69.80;99938.09;6182064;23;20024;-67
2022/11/19 05:15:18;;;;;;;0.10;0.10;;;;;;;-3.83;70.13;99938.91;6128830;23;20025;-67
2022/11/19 05:17:44;;;;;;;0.10;0.10;;;;;;;-3.82;70.03;99945.09;6182536;23;20021;-67
2022/11/19 05:20:11;;;;;;;0.10;0.10;;;;;;;-3.85;69.70;99948.94;6149280;23;20447;-67
2022/11/19 05:22:37;;;;;;;0.10;0.10;;;;;;;-3.89;70.08;99939.63;6178267;23;20095;-69
2022/11/19 05:25:04;;;;;;;0.20;0.20;;;;;;;-3.89;70.12;99936.97;6165051;23;20028;-68
2022/11/19 05:27:30;;;;;;;0.20;0.20;;;;;;;-3.95;70.32;99951.84;6182673;23;20052;-68
2022/11/19 05:29:56;;;;;;;0.00;0.00;;;;;;;-4.01;70.39;99947.22;6191521;23;20070;-68
2022/11/19 05:32:23;;;;;;;0.17;0.17;;;;;;;-4.05;70.47;99949.41;6178921;23;20099;-68
2022/11/19 05:34:49;;;;;;;0.10;0.10;;;;;;;-4.05;70.44;99959.28;6191547;23;20029;-68
2022/11/19 05:37:15;;;;;;;0.10;0.10;;;;;;;-4.03;70.60;99959.94;6180447;23;20039;-68
2022/11/19 05:39:41;;;;;;;0.20;0.10;;;;;;;-4.01;70.77;99966.72;6127388;23;20021;-68
2022/11/19 05:42:07;;;;;;;0.10;0.10;;;;;;;-3.98;70.56;99962.91;6154587;23;20034;-68
2022/11/19 05:44:33;;;;;;;0.10;0.10;;;;;;;-3.96;70.54;99962.72;6181972;23;20100;-68
2022/11/19 05:46:59;;;;;;;0.10;0.10;;;;;;;-3.92;70.72;99964.03;6156407;23;20037;-68
2022/11/19 05:49:27;;;;;;;0.10;0.10;;;;;;;-3.84;70.68;99961.28;6165717;23;20029;-68
2022/11/19 05:51:53;;;;;;;0.10;0.10;;;;;;;-3.85;70.28;99955.13;6190648;23;20021;-68
2022/11/19 05:54:19;;;;;;;0.10;0.10;;;;;;;-3.81;70.46;99966.31;6190255;23;20025;-68
2022/11/19 05:56:45;;;;;;;0.20;0.20;;;;;;;-3.78;70.33;99973.13;6151262;23;20032;-68
2022/11/19 05:59:11;;;;;;;0.10;0.10;;;;;;;-3.78;70.27;99976.66;6180597;23;20356;-68
2022/11/19 06:01:37;;;;;;;0.10;0.10;;;;;;;-3.73;70.51;99974.25;6127712;23;20021;-70
2022/11/19 06:04:03;;;;;;;0.20;0.20;;;;;;;-3.70;70.62;99971.22;6160551;23;20024;-68
2022/11/19 06:06:31;;;;;;;0.10;0.10;;;;;;;-3.65;70.43;99978.72;6186473;23;20100;-68
2022/11/19 06:08:57;;;;;;;0.20;0.20;;;;;;;-3.61;70.38;99979.22;6137549;23;20103;-68
2022/11/19 06:14:07;;;;;;;0.10;0.10;;;;;;;-3.64;70.62;99971.56;6188948;23;20059;-68
2022/11/19 06:16:33;;;;;;;0.20;0.20;;;;;;;-3.63;70.56;99963.34;6181147;23;20025;-68
2022/11/19 06:18:59;;;;;;;0.40;0.10;;;;;;;-3.63;70.35;99957.19;6178900;23;20338;-68
2022/11/19 06:21:25;;;;;;;0.10;0.10;;;;;;;-3.65;70.41;99961.88;6177343;23;20025;-68
2022/11/19 06:23:53;;;;;;;0.10;0.10;;;;;;;-3.60;70.53;99965.66;6159558;23;20402;-68
2022/11/19 06:26:23;;;;;;;0.10;0.10;;;;;;;-3.61;70.50;99966.66;6174457;23;20075;-68
2022/11/19 06:28:49;;;;;;;0.10;0.10;;;;;;;-3.60;70.45;99951.47;6124683;23;20124;-68
2022/11/19 06:31:15;;;;;;;0.20;0.20;;;;;;;-3.50;70.32;99960.09;6184418;23;20083;-68
2022/11/19 06:33:41;;;;;;;0.10;0.10;;;;;;;-3.43;70.26;99973.59;6175199;23;20040;-67
2022/11/19 06:36:08;;;;;;;0.20;0.20;;;;;;;-3.45;70.50;99976.41;6160332;23;20021;-67
2022/11/19 06:38:34;;;;;;;0.10;0.10;;;;;;;-3.42;70.35;99991.28;6143717;23;20310;-68
2022/11/19 06:41:01;;;;;;;0.13;0.13;;;;;;;-3.40;70.33;100004.47;6152175;23;20039;-68
2022/11/19 06:43:27;;;;;;;0.10;0.10;;;;;;;-3.34;70.12;100006.44;6175802;23;20041;-68
2022/11/19 06:45:54;;;;;;;0.10;0.10;;;;;;;-3.37;69.93;100002.28;6184053;23;20028;-68
2022/11/19 06:48:20;;;;;;;0.10;0.10;;;;;;;-3.39;69.82;100006.13;6147680;23;20439;-68
2022/11/19 06:50:46;;;;;;;0.20;0.20;;;;;;;-3.43;69.63;100017.19;6189425;23;20532;-70
2022/11/19 06:53:12;;;;;;;0.10;0.10;;;;;;;-3.45;69.79;100021.88;6176749;23;20021;-71
2022/11/19 06:55:38;;;;;;;0.10;0.10;;;;;;;-3.45;69.69;100005.84;6183427;23;20027;-72
2022/11/19 06:58:07;;;;;;;0.20;0.20;;;;;;;-3.48;69.82;100003.53;6150368;23;20315;-71
2022/11/19 07:00:34;;;;;;;0.20;0.20;;;;;;;-3.39;69.79;100015.00;6188068;23;20024;-71
2022/11/19 07:03:00;;;;;;;0.10;0.10;;;;;;;-3.39;70.03;100017.66;6177869;23;20021;-70
2022/11/19 07:05:26;;;;;;;0.55;0.20;;;;;;;-3.29;69.88;100028.94;6177455;23;20410;-70
2022/11/19 07:07:52;;;;;;;0.10;0.10;;;;;;;-3.19;69.87;100033.22;6161618;23;20021;-71
2022/11/19 07:10:18;;;;;;;0.10;0.10;;;;;;;-3.11;69.58;100033.19;6161025;23;20338;-71
2022/11/19 07:12:44;;;;;;;0.20;0.20;;;;;;;-3.03;69.04;100040.31;6117549;23;20108;-68
2022/11/19 07:15:12;;;;;;;0.20;0.20;;;;;;;-3.04;69.11;100050.16;6163971;23;20476;-71
2022/11/19 07:17:38;;;;;;;0.17;0.17;;;;;;;-3.01;69.37;100060.50;6161494;23;20500;-71
2022/11/19 07:20:06;;;;;;;0.10;0.10;;;;;;;-2.92;69.35;100065.81;6158987;23;20021;-71
2022/11/19 07:22:32;;;;;;;0.28;0.28;;;;;;;-2.92;69.11;100074.66;6116025;23;20017;-71
2022/11/19 07:24:58;;;;;;;0.10;0.10;;;;;;;-2.93;68.66;100073.00;6142062;23;20075;-71
2022/11/19 07:27:24;;;;;;;0.10;0.10;;;;;;;-3.05;68.87;100067.25;6176348;23;20460;-71
2022/11/19 07:29:50;;;;;;;0.22;0.22;;;;;;;-2.98;68.92;100078.06;6118944;23;20337;-71
2022/11/19 07:32:17;;;;;;;0.13;0.13;;;;;;;-3.02;68.81;100090.13;6158216;23;20349;-71
2022/11/19 07:34:43;;;;;;;0.10;0.10;;;;;;;-3.00;68.94;100090.78;6178664;23;20380;-71
2022/11/19 07:37:09;;;;;;;0.10;0.10;;;;;;;-2.96;68.94;100093.94;6176798;23;20038;-71
2022/11/19 07:39:35;;;;;;;0.10;0.10;;;;;;;-2.97;69.10;100093.09;6163489;23;20028;-71
2022/11/19 07:44:51;;;;;;;0.10;0.10;;;;;;;-2.99;68.90;100100.47;6176911;23;20052;-70
2022/11/19 07:47:18;;;;;;;0.10;0.10;;;;;;;-2.96;68.93;100100.13;6187363;23;20017;-70
2022/11/19 07:49:44;;;;;;;0.20;0.20;;;;;;;-2.91;69.02;100095.06;6178772;23;20032;-71
2022/11/19 07:52:10;;;;;;;0.10;0.10;;;;;;;-2.92;69.25;100098.75;6161846;23;20505;-71
2022/11/19 07:54:36;;;;;;;0.10;0.10;;;;;;;-2.89;69.16;100105.59;6126562;23;20083;-71
2022/11/19 07:57:03;;;;;;;0.10;0.10;;;;;;;-2.86;69.37;100106.06;6187407;23;20357;-71
2022/11/19 07:59:29;;;;;;;0.20;0.20;;;;;;;-2.87;69.16;100103.56;6160106;23;20025;-70
2022/11/19 08:01:55;;;;;;;0.10;0.10;;;;;;;-2.90;69.17;100098.56;6180840;23;20052;-71
2022/11/19 08:04:22;;;;;;;0.10;0.10;;;;;;;-2.91;69.16;100096.91;6152482;23;20036;-71
2022/11/19 08:06:48;;;;;;;0.15;0.15;;;;;;;-3.01;69.20;100102.50;6180526;23;20021;-71
2022/11/19 08:09:14;;;;;;;0.20;0.20;;;;;;;-3.04;69.68;100101.00;6186500;23;20032;-72
2022/11/19 08:11:40;;;;;;;0.10;0.10;;;;;;;-2.93;69.81;100099.75;6152824;23;20112;-71
2022/11/19 08:14:06;;;;;;;0.10;0.10;;;;;;;-2.91;69.60;100097.72;6163820;23;20029;-71
2022/11/19 08:19:17;;;;;;;0.20;0.20;;;;;;;-2.97;69.44;100100.28;6179032;23;20071;-71
2022/11/19 08:21:46;;;;;;;0.17;0.17;;;;;;;-2.92;69.40;100103.28;6156314;23;20024;-71
2022/11/19 08:24:13;;;;;;;0.10;0.10;;;;;;;-2.91;69.39;100096.91;6189795;23;20500;-72
2022/11/19 08:26:39;;;;;;;0.20;0.20;;;;;;;-2.92;69.38;100101.41;6126379;23;20024;-71
2022/11/19 08:29:06;;;;;;;0.10;0.10;;;;;;;-2.91;69.57;100094.25;6176217;23;20025;-71
2022/11/19 08:31:32;;;;;;;0.15;0.15;;;;;;;-2.93;69.59;100080.22;6123319;23;20040;-71
2022/11/19 08:34:00;;;;;;;0.10;0.10;;;;;;;-2.94;69.83;100071.34;6178090;23;20049;-71
2022/11/19 08:36:26;;;;;;;;;;;;;;;-2.99;69.82;100076.41;6160476;23;20049;-71
2022/11/19 08:38:55;;;;;;;0.20;0.20;;;;;;;-3.01;69.78;100060.50;6187012;23;19979;-71
2022/11/19 08:44:06;;;;;;;0.10;0.10;;;;;;;-2.87;69.87;100072.28;6160890;23;20093;-71
2022/11/19 08:46:32;;;;;;;0.20;0.20;;;;;;;-2.79;69.75;100070.53;6162726;23;20025;-71
2022/11/19 08:48:57;;;;;;;0.10;0.10;;;;;;;-2.80;69.55;100075.09;6178651;23;20029;-71
2022/11/19 08:51:24;;;;;;;0.10;0.10;;;;;;;-2.79;69.72;100079.44;6184870;23;20644;-71
2022/11/19 08:53:51;;;;;;;0.10;0.10;;;;;;;-2.81;69.76;100083.28;6179854;23;20434;-71
2022/11/19 08:56:18;;;;;;;0.13;0.13;;;;;;;-2.82;69.83;100077.09;6181017;23;20048;-71
2022/11/19 08:58:44;;;;;;;0.10;0.10;;;;;;;-2.75;70.03;100069.16;6129450;23;20032;-71
2022/11/19 09:01:12;;;;;;;0.10;0.10;;;;;;;-2.73;69.65;100072.53;6181927;23;20025;-71
2022/11/19 09:03:38;;;;;;;0.10;0.10;;;;;;;-2.77;69.76;100074.72;6165362;23;20021;-71
2022/11/19 09:06:05;;;;;;;0.10;0.10;;;;;;;-2.78;70.06;100077.56;6190383;23;20032;-71
2022/11/19 09:08:32;;;;;;;0.20;0.20;;;;;;;-2.78;70.31;100075.72;6151238;23;20025;-71
2022/11/19 09:10:59;;;;;;;0.20;0.20;;;;;;;-2.83;70.24;100072.75;6180567;23;20449;-71
2022/11/19 09:13:27;;;;;;;0.10;0.10;;;;;;;-2.85;69.97;100072.94;6162251;23;20028;-71
2022/11/19 09:15:53;;;;;;;0.20;0.20;;;;;;;-2.79;70.06;100074.06;6188663;23;20027;-71
2022/11/19 09:18:19;;;;;;;0.10;0.10;;;;;;;-2.69;70.36;100078.31;6125502;23;20104;-71
2022/11/19 09:20:45;;;;;;;0.20;0.20;;;;;;;-2.60;70.13;100077.25;6178829;23;20031;-72
2022/11/19 09:23:11;;;;;;;0.20;0.20;;;;;;;-2.58;69.86;100083.25;6150957;23;20025;-71
2022/11/19 09:25:36;;;;;;;0.17;0.17;;;;;;;-2.52;69.94;100100.44;6181103;23;20021;-71
2022/11/19 09:28:03;;;;;;;0.10;0.10;;;;;;;-2.62;69.96;100095.34;6179537;23;20029;-71
2022/11/19 09:30:30;;;;;;;0.10;0.10;;;;;;;-2.68;69.92;100104.94;6186391;23;20051;-68
2022/11/19 09:32:58;;;;;;;0.10;0.10;;;;;;;-2.73;70.07;100112.69;6185178;23;20460;-68
2022/11/19 09:35:24;;;;;;;0.13;0.13;;;;;;;-2.96;70.17;100093.94;6179941;23;20029;-71
2022/11/19 09:37:50;;;;;;;0.10;0.10;;;;;;;-2.90;70.58;100104.75;6187811;23;20475;-71
2022/11/19 09:40:20;;;;;;;0.10;0.10;;;;;;;-2.95;70.53;100103.66;6189723;23;20021;-71
2022/11/19 09:43:00;;;;;;;0.10;0.10;;;;;;;-2.85;71.05;100112.25;6155382;23;20098;-71
2022/11/19 09:45:44;;;;;;;0.20;0.20;;;;;;;-2.79;70.66;100114.22;6162180;23;20028;-71
2022/11/19 09:48:20;;;;;;;0.17;0.17;;;;;;;-2.91;70.88;100096.91;6149206;23;20020;-71
2022/11/19 09:50:53;;;;;;;0.10;0.10;;;;;;;-2.79;70.76;100111.53;6149798;23;20133;-71
2022/11/19 09:53:20;;;;;;;0.10;0.10;;;;;;;-2.76;70.70;100110.34;6158702;23;20474;-71
2022/11/19 09:55:49;;;;;;;0.20;0.20;;;;;;;-2.82;70.69;100111.88;6176433;23;20337;-71
2022/11/19 09:58:20;;;;;;;0.10;0.10;;;;;;;-2.94;70.76;100107.97;6149801;23;20048;-71
2022/11/19 10:00:48;;;;;;;0.10;0.10;;;;;;;-3.08;71.14;100102.38;6150992;23;20017;-70
2022/11/19 10:03:19;;;;;;;0.40;0.20;;;;;;;-3.05;71.15;100110.06;6189065;23;20111;-68
2022/11/19 10:05:58;;;;;;;0.10;0.10;;;;;;;-2.94;71.55;100113.34;6149261;23;20017;-68
2022/11/19 10:08:38;;;;;;;0.10;0.10;;;;;;;-2.99;71.26;100105.84;6186103;23;20412;-68
2022/11/19 10:11:19;;;;;;;0.10;0.10;;;;;;;-2.94;71.51;100116.00;6176127;23;20404;-68
2022/11/19 10:13:54;;;;;;;0.10;0.10;;;;;;;-2.87;71.42;100111.59;6158502;23;20025;-68
2022/11/19 10:16:36;;;;;;;0.10;0.10;;;;;;;-2.92;71.31;100097.94;6122712;23;20021;-68
2022/11/19 10:19:15;;;;;;;0.10;0.10;;;;;;;-2.88;71.82;100097.41;6177911;23;20091;-68
2022/11/19 10:21:49;;;;;;;0.20;0.20;;;;;;;-2.76;71.48;100092.44;6176524;23;20475;-68
2022/11/19 10:24:24;;;;;;;0.10;0.10;;;;;;;-2.80;70.98;100085.78;6175873;23;20025;-68
2022/11/19 10:26:57;;;;;;;0.32;0.20;;;;;;;-2.78;71.07;100081.09;6177478;23;20025;-67
2022/11/19 10:29:27;;;;;;;0.10;0.10;;;;;;;-2.77;71.04;100081.91;6176572;23;20040;-68
2022/11/19 10:32:16;;;;;;;0.10;0.10;;;;;;;-2.81;71.30;100084.13;6178935;23;20021;-68
2022/11/19 10:34:43;;;;;;;0.10;0.10;;;;;;;-2.85;71.06;100078.28;6175839;23;20039;-68
2022/11/19 10:37:13;;;;;;;0.20;0.20;;;;;;;-2.91;71.42;100076.31;6178561;23;20017;-68
2022/11/19 10:39:42;;;;;;;0.13;0.13;;;;;;;-2.95;71.41;100069.66;6178650;23;20059;-68
2022/11/19 10:42:18;;;;;;;0.10;0.10;;;;;;;-2.91;71.62;100068.28;6179215;23;20380;-68
2022/11/19 10:44:52;;;;;;;0.10;0.10;;;;;;;-2.90;71.61;100069.13;6162408;23;20024;-68
2022/11/19 10:47:22;;;;;;;0.10;0.10;;;;;;;-2.87;71.48;100055.38;6161943;23;20025;-68
2022/11/19 10:49:52;;;;;;;0.20;0.20;;;;;;;-2.97;71.59;100057.47;6126268;23;20345;-68
2022/11/19 10:52:29;;;;;;;0.10;0.10;;;;;;;-3.03;71.67;100033.09;6160622;23;20035;-68
2022/11/19 10:55:01;;;;;;;0.10;0.10;;;;;;;-2.94;71.48;100046.44;6189419;23;20025;-68
2022/11/19 10:57:30;;;;;;;0.10;0.10;;;;;;;-3.08;71.76;100032.81;6181179;23;20021;-68
2022/11/19 10:59:56;;;;;;;0.13;0.13;;;;;;;-3.12;72.58;100042.22;6179326;23;20404;-68
2022/11/19 11:02:32;;;;;;;0.10;0.10;;;;;;;-3.07;72.45;100037.16;6161180;23;20116;-68
2022/11/19 11:05:01;;;;;;;0.10;0.10;;;;;;;-3.04;72.49;100028.75;6188199;23;20459;-68
2022/11/19 11:08:02;;;;;;;0.10;0.10;;;;;;;-2.95;72.22;100016.16;6178096;23;20021;-68
2022/11/19 11:10:43;;;;;;;0.10;0.10;;;;;;;-2.90;72.08;100026.31;6160038;23;20021;-68
2022/11/19 11:16:09;;;;;;;0.10;0.10;;;;;;;-3.06;71.46;100032.63;6160652;23;20025;-70
2022/11/19 11:18:40;;;;;;;0.10;0.10;;;;;;;-3.17;72.13;100034.72;6177418;23;20392;-71
2022/11/19 11:21:10;;;;;;;0.10;0.10;;;;;;;-3.13;72.46;100035.19;6152899;23;20021;-67
2022/11/19 11:23:49;;;;;;;0.10;0.10;;;;;;;-3.10;72.31;100026.81;6180496;23;20017;-68
2022/11/19 11:26:19;;;;;;;0.10;0.10;;;;;;;-3.17;72.72;100025.84;6178263;23;20048;-68
2022/11/19 11:28:54;;;;;;;0.10;0.10;;;;;;;-3.16;72.84;100027.53;6160939;23;20027;-68
2022/11/19 11:31:30;;;;;;;0.10;0.10;;;;;;;-3.20;72.98;100020.88;6151870;23;20047;-67
2022/11/19 11:33:58;;;;;;;0.10;0.10;;;;;;;-3.15;73.07;100038.06;6151464;23;20025;-71
2022/11/19 11:36:26;;;;;;;0.10;0.10;;;;;;;-3.06;72.98;100037.97;6138922;23;20025;-71
2022/11/19 11:38:55;;;;;;;0.10;0.10;;;;;;;-3.07;72.86;100025.59;6187251;23;20021;-71
2022/11/19 11:41:31;;;;;;;0.10;0.10;;;;;;;-3.10;73.17;100021.47;6149732;23;20025;-71
2022/11/19 11:44:02;;;;;;;0.10;0.10;;;;;;;-3.14;73.05;100020.13;6188576;23;20074;-71
2022/11/19 11:46:37;;;;;;;0.17;0.17;;;;;;;-3.19;73.59;100022.53;6189149;23;20025;-71
2022/11/19 11:49:09;;;;;;;0.10;0.10;;;;;;;-3.24;73.85;100017.72;6190726;23;20457;-71
2022/11/19 11:51:38;;;;;;;0.10;0.10;;;;;;;-3.21;74.09;100012.00;6188899;23;20021;-70
2022/11/19 11:54:15;;;;;;;0.10;0.10;;;;;;;-3.16;74.00;100011.47;6185921;23;20464;-71
2022/11/19 11:56:41;;;;;;;0.32;0.20;;;;;;;-3.15;73.61;100005.94;6188736;23;20050;-71
2022/11/19 11:59:20;;;;;;;0.10;0.10;;;;;;;-3.19;73.76;100009.16;6151656;23;20044;-70
2022/11/19 12:01:53;;;;;;;0.10;0.10;;;;;;;-3.18;74.19;100002.78;6186754;23;20104;-71
2022/11/19 12:04:22;;;;;;;0.10;0.10;;;;;;;-3.17;73.83;100002.63;6178702;23;20025;-67
2022/11/19 12:07:02;;;;;;;0.10;0.10;;;;;;;-3.17;74.10;100004.44;6146624;23;20083;-68